createdAt,value
2022-12-18T00:01:36.139Z,7.80
2022-12-18T00:04:06.247Z,3.83
2022-12-18T00:06:34.880Z,3.00
2022-12-18T00:09:03.951Z,3.05
2022-12-18T00:11:32.400Z,2.83
2022-12-18T00:14:01.093Z,2.83
2022-12-18T00:16:31.217Z,5.93
2022-12-18T00:18:59.692Z,2.40
2022-12-18T00:21:28.550Z,3.15
2022-12-18T00:23:56.555Z,3.85
2022-12-18T00:26:27.294Z,4.25
2022-12-18T00:29:03.767Z,3.75
2022-12-18T00:31:33.758Z,4.80
2022-12-18T00:34:03.354Z,3.55
2022-12-18T00:36:34.430Z,2.78
2022-12-18T00:39:03.901Z,4.60
2022-12-18T00:41:49.897Z,4.82
2022-12-18T00:46:47.883Z,2.90
2022-12-18T00:49:19.890Z,6.15
2022-12-18T00:51:48.402Z,4.95
2022-12-18T00:54:17.166Z,5.10
2022-12-18T00:56:49.299Z,5.03
2022-12-18T00:59:18.861Z,3.20
2022-12-18T01:01:46.998Z,3.33
2022-12-18T01:04:15.164Z,7.28
2022-12-18T01:06:46.263Z,3.63
2022-12-18T01:09:13.783Z,4.88
2022-12-18T01:11:41.481Z,5.20
2022-12-18T01:14:09.159Z,3.92
2022-12-18T01:16:38.762Z,4.10
2022-12-18T01:19:06.361Z,5.28
2022-12-18T01:21:34.247Z,7.70
2022-12-18T01:24:05.620Z,5.63
2022-12-18T01:26:33.181Z,4.05
2022-12-18T01:29:00.875Z,3.75
2022-12-18T01:31:33.976Z,3.28
2022-12-18T01:34:05.187Z,5.63
2022-12-18T01:36:35.079Z,5.35
2022-12-18T01:39:13.841Z,4.75
2022-12-18T01:42:01.841Z,4.32
2022-12-18T01:44:57.191Z,2.28
2022-12-18T01:47:34.606Z,4.63
2022-12-18T01:50:23.413Z,4.35
2022-12-18T01:52:57.595Z,3.78
2022-12-18T01:55:27.311Z,4.78
2022-12-18T01:57:57.463Z,4.22
2022-12-18T02:00:25.924Z,7.10
2022-12-18T02:02:54.546Z,4.15
2022-12-18T02:05:38.452Z,4.93
2022-12-18T02:08:41.531Z,10.70
2022-12-18T02:11:38.529Z,6.90
2022-12-18T02:14:22.158Z,5.45
2022-12-18T02:17:12.148Z,6.07
2022-12-18T02:19:42.659Z,10.07
2022-12-18T02:22:27.542Z,5.45
2022-12-18T02:25:10.107Z,6.00
2022-12-18T02:27:40.265Z,6.25
2022-12-18T02:30:09.406Z,11.63
2022-12-18T02:32:42.392Z,6.53
2022-12-18T02:35:15.917Z,4.40
2022-12-18T02:37:46.973Z,6.75
2022-12-18T02:40:16.408Z,5.47
2022-12-18T02:42:44.479Z,5.18
2022-12-18T02:45:15.862Z,3.30
2022-12-18T02:47:46.995Z,4.05
2022-12-18T02:50:19.395Z,5.15
2022-12-18T02:52:50.269Z,5.05
2022-12-18T02:55:21.013Z,5.82
2022-12-18T02:58:07.891Z,4.07
2022-12-18T03:01:08.262Z,6.00
2022-12-18T03:03:43.108Z,5.20
2022-12-18T03:06:19.755Z,5.22
2022-12-18T03:08:52.290Z,5.32
2022-12-18T03:11:39.868Z,6.30
2022-12-18T03:14:09.734Z,6.10
2022-12-18T03:16:38.871Z,5.10
2022-12-18T03:19:12.928Z,3.88
2022-12-18T03:21:47.866Z,3.90
2022-12-18T03:24:19.572Z,5.13
2022-12-18T03:26:51.579Z,5.85
2022-12-18T03:29:55.729Z,5.97
2022-12-18T03:32:32.010Z,5.53
2022-12-18T03:35:05.648Z,8.95
2022-12-18T03:37:37.050Z,5.50
2022-12-18T03:40:06.566Z,6.75
2022-12-18T03:42:56.095Z,8.13
2022-12-18T03:45:33.716Z,6.45
2022-12-18T03:48:23.357Z,3.78
2022-12-18T03:51:49.735Z,4.60
2022-12-18T03:54:19.134Z,5.78
2022-12-18T03:57:24.600Z,8.23
2022-12-18T04:00:01.020Z,4.22
2022-12-18T04:02:47.091Z,3.17
2022-12-18T04:05:22.976Z,3.75
2022-12-18T04:07:53.018Z,5.22
2022-12-18T04:10:20.795Z,3.75
2022-12-18T04:12:48.311Z,3.42
2022-12-18T04:15:18.106Z,4.72
2022-12-18T04:17:50.808Z,3.42
2022-12-18T04:20:21.702Z,2.63
2022-12-18T04:22:49.393Z,4.88
2022-12-18T04:25:18.410Z,4.00
2022-12-18T04:27:57.434Z,4.40
2022-12-18T04:30:24.978Z,4.10
2022-12-18T04:32:53.058Z,3.58
2022-12-18T04:35:21.368Z,2.80
2022-12-18T04:37:48.772Z,3.78
2022-12-18T04:40:16.754Z,7.05
2022-12-18T04:42:47.385Z,3.15
2022-12-18T04:45:14.972Z,5.40
2022-12-18T04:47:42.357Z,2.45
2022-12-18T04:50:10.107Z,3.45
2022-12-18T04:52:37.632Z,3.83
2022-12-18T04:55:05.423Z,3.67
2022-12-18T04:57:32.917Z,4.05
2022-12-18T05:00:00.477Z,4.38
2022-12-18T05:02:28.019Z,3.58
2022-12-18T05:04:55.628Z,4.03
2022-12-18T05:07:23.070Z,2.20
2022-12-18T05:09:50.563Z,5.57
2022-12-18T05:12:17.977Z,4.10
2022-12-18T05:14:45.459Z,3.17
2022-12-18T05:17:13.285Z,1.98
2022-12-18T05:19:40.737Z,2.30
2022-12-18T05:22:08.266Z,3.47
2022-12-18T05:24:36.153Z,3.90
2022-12-18T05:27:03.659Z,3.47
2022-12-18T05:29:31.167Z,2.03
2022-12-18T05:31:58.572Z,2.67
2022-12-18T05:34:26.062Z,2.97
2022-12-18T05:36:53.486Z,1.23
2022-12-18T05:39:20.943Z,2.72
2022-12-18T05:41:48.327Z,2.38
2022-12-18T05:44:15.828Z,3.83
2022-12-18T05:46:43.325Z,3.70
2022-12-18T05:49:10.773Z,2.35
2022-12-18T05:51:38.264Z,2.40
2022-12-18T05:54:06.723Z,2.13
2022-12-18T05:56:34.792Z,3.05
2022-12-18T05:59:02.370Z,1.35
2022-12-18T06:01:30.502Z,1.55
2022-12-18T06:03:58.606Z,1.80
2022-12-18T06:06:29.827Z,1.88
2022-12-18T06:08:57.713Z,1.73
2022-12-18T06:11:27.271Z,1.73
2022-12-18T06:13:58.615Z,2.15
2022-12-18T06:16:27.524Z,2.33
2022-12-18T06:18:57.780Z,3.10
2022-12-18T06:21:25.348Z,2.38
2022-12-18T06:23:52.748Z,1.75
2022-12-18T06:26:26.171Z,2.30
2022-12-18T06:28:55.647Z,6.30
2022-12-18T06:31:23.247Z,2.42
2022-12-18T06:33:50.798Z,2.22
2022-12-18T06:36:18.646Z,2.92
2022-12-18T06:38:46.109Z,3.08
2022-12-18T06:41:16.335Z,3.47
2022-12-18T06:43:44.828Z,3.30
2022-12-18T06:46:12.961Z,2.63
2022-12-18T06:48:41.213Z,2.78
2022-12-18T06:51:08.792Z,3.88
2022-12-18T06:53:36.360Z,3.42
2022-12-18T06:56:09.852Z,3.33
2022-12-18T06:58:39.607Z,2.65
2022-12-18T07:01:09.701Z,3.13
2022-12-18T07:03:38.949Z,6.68
2022-12-18T07:06:07.278Z,3.33
2022-12-18T07:08:34.940Z,4.10
2022-12-18T07:11:05.389Z,4.60
2022-12-18T07:13:33.066Z,7.40
2022-12-18T07:16:15.926Z,5.43
2022-12-18T07:18:45.154Z,3.70
2022-12-18T07:21:16.497Z,5.35
2022-12-18T07:23:44.567Z,6.57
2022-12-18T07:26:13.991Z,4.03
2022-12-18T07:28:42.943Z,5.35
2022-12-18T07:31:13.546Z,4.05
2022-12-18T07:33:41.849Z,2.67
2022-12-18T07:36:11.314Z,6.15
2022-12-18T07:38:39.036Z,6.80
2022-12-18T07:41:12.464Z,4.03
2022-12-18T07:43:41.529Z,5.82
2022-12-18T07:46:10.579Z,8.00
2022-12-18T07:48:39.837Z,9.07
2022-12-18T07:51:08.423Z,7.55
2022-12-18T07:53:37.686Z,6.20
2022-12-18T07:56:28.127Z,8.02
2022-12-18T07:58:57.257Z,5.43
2022-12-18T08:01:25.535Z,10.63
2022-12-18T08:03:53.169Z,5.95
2022-12-18T08:06:22.507Z,8.10
2022-12-18T08:08:55.969Z,11.32
2022-12-18T08:11:25.301Z,11.02
2022-12-18T08:13:53.626Z,9.52
2022-12-18T08:16:22.036Z,9.18
2022-12-18T08:18:49.901Z,10.32
2022-12-18T08:21:23.786Z,11.00
2022-12-18T08:23:52.814Z,12.27
2022-12-18T08:26:21.161Z,7.63
2022-12-18T08:28:50.748Z,9.60
2022-12-18T08:31:19.802Z,7.50
2022-12-18T08:33:50.358Z,9.55
2022-12-18T08:36:18.402Z,10.45
2022-12-18T08:38:46.402Z,6.88
2022-12-18T08:41:16.600Z,9.88
2022-12-18T08:44:02.961Z,10.45
2022-12-18T08:46:36.060Z,11.43
2022-12-18T08:49:04.932Z,9.63
2022-12-18T08:51:33.344Z,8.43
2022-12-18T08:54:01.502Z,10.18
2022-12-18T08:56:29.247Z,8.98
2022-12-18T08:58:57.737Z,8.68
2022-12-18T09:01:25.503Z,5.68
2022-12-18T09:03:53.085Z,6.30
2022-12-18T09:06:22.202Z,9.80
2022-12-18T09:08:50.170Z,6.20
2022-12-18T09:11:23.852Z,8.63
2022-12-18T09:13:52.001Z,6.25
2022-12-18T09:16:20.614Z,5.38
2022-12-18T09:18:48.552Z,4.60
2022-12-18T09:21:21.549Z,4.85
2022-12-18T09:23:52.883Z,5.53
2022-12-18T09:26:21.089Z,8.10
2022-12-18T09:28:48.528Z,4.75
2022-12-18T09:31:17.061Z,4.50
2022-12-18T09:33:46.082Z,5.38
2022-12-18T09:36:15.931Z,9.00
2022-12-18T09:38:43.686Z,4.38
2022-12-18T09:41:31.229Z,4.68
2022-12-18T09:46:37.755Z,3.35
2022-12-18T09:49:11.882Z,5.68
2022-12-18T09:51:48.200Z,6.35
2022-12-18T09:54:22.177Z,3.63
2022-12-18T09:56:49.842Z,3.83
2022-12-18T09:59:24.983Z,6.65
2022-12-18T10:01:53.050Z,8.35
2022-12-18T10:04:20.632Z,6.18
2022-12-18T10:06:53.763Z,5.97
2022-12-18T10:09:39.793Z,9.40
2022-12-18T10:12:10.715Z,7.88
2022-12-18T10:14:45.770Z,9.43
2022-12-18T10:17:33.168Z,9.25
2022-12-18T10:20:14.888Z,5.65
2022-12-18T10:22:51.392Z,9.90
2022-12-18T10:25:32.483Z,7.82
2022-12-18T10:28:12.275Z,9.52
2022-12-18T10:30:41.249Z,7.47
2022-12-18T10:33:18.230Z,4.80
2022-12-18T10:35:47.553Z,8.07
2022-12-18T10:38:17.882Z,11.15
2022-12-18T10:40:56.184Z,9.52
2022-12-18T10:43:34.563Z,4.90
2022-12-18T10:46:15.920Z,6.93
2022-12-18T10:48:49.572Z,8.85
2022-12-18T10:51:34.485Z,5.53
2022-12-18T10:54:06.358Z,5.35
2022-12-18T10:56:38.748Z,12.70
2022-12-18T10:59:09.499Z,7.00
2022-12-18T11:01:51.063Z,7.45
2022-12-18T11:04:22.275Z,14.32
2022-12-18T11:06:57.622Z,13.38
2022-12-18T11:09:32.709Z,12.13
2022-12-18T11:12:22.046Z,8.70
2022-12-18T11:14:54.527Z,8.73
2022-12-18T11:17:30.094Z,8.27
2022-12-18T11:19:59.913Z,17.02
2022-12-18T11:22:29.019Z,15.13
2022-12-18T11:25:32.905Z,10.20
2022-12-18T11:28:04.376Z,11.75
2022-12-18T11:30:34.907Z,4.63
2022-12-18T11:33:22.632Z,9.45
2022-12-18T11:36:04.779Z,13.63
2022-12-18T11:38:36.115Z,26.92
2022-12-18T11:41:49.103Z,12.52
2022-12-18T11:44:26.260Z,10.98
2022-12-18T11:47:10.614Z,12.07
2022-12-18T11:49:38.091Z,13.07
2022-12-18T11:52:17.957Z,12.68
2022-12-18T11:54:45.510Z,14.82
2022-12-18T11:57:40.819Z,11.57
2022-12-18T12:00:22.115Z,11.85
2022-12-18T12:03:08.445Z,8.80
2022-12-18T12:08:30.424Z,11.55
2022-12-18T12:11:13.180Z,12.15
2022-12-18T12:14:03.725Z,18.20
2022-12-18T12:17:07.741Z,11.23
2022-12-18T12:19:37.944Z,12.27
2022-12-18T12:22:15.051Z,11.55
2022-12-18T12:25:06.974Z,10.73
2022-12-18T12:28:02.733Z,13.18
2022-12-18T12:31:08.779Z,12.73
2022-12-18T12:33:58.007Z,12.20
2022-12-18T12:36:42.208Z,12.63
2022-12-18T12:39:19.892Z,14.10
2022-12-18T12:42:06.816Z,16.20
2022-12-18T12:44:40.870Z,16.50
2022-12-18T12:47:17.502Z,11.68
2022-12-18T12:49:48.777Z,15.05
2022-12-18T12:52:29.380Z,11.15
2022-12-18T12:54:57.855Z,19.75
2022-12-18T12:57:47.022Z,13.95
2022-12-18T13:00:18.485Z,15.30
2022-12-18T13:02:52.506Z,14.82
2022-12-18T13:05:46.113Z,21.25
2022-12-18T13:08:26.704Z,19.75
2022-12-18T13:11:18.487Z,24.75
2022-12-18T13:13:56.808Z,18.75
2022-12-18T13:16:28.273Z,20.27
2022-12-18T13:18:59.855Z,21.73
2022-12-18T13:21:33.973Z,18.65
2022-12-18T13:24:28.965Z,19.25
2022-12-18T13:26:56.794Z,19.25
2022-12-18T13:29:54.140Z,16.23
2022-12-18T13:32:25.150Z,20.17
2022-12-18T13:35:23.040Z,19.27
2022-12-18T13:37:56.348Z,18.60
2022-12-18T13:40:45.578Z,21.98
2022-12-18T13:43:28.063Z,21.38
2022-12-18T13:46:31.778Z,20.75
2022-12-18T13:49:15.334Z,19.35
2022-12-18T13:51:49.973Z,19.20
2022-12-18T13:54:40.062Z,14.50
2022-12-18T13:57:31.195Z,18.95
2022-12-18T14:00:13.373Z,16.85
2022-12-18T14:02:46.597Z,20.60
2022-12-18T14:05:27.869Z,19.65
2022-12-18T14:07:56.794Z,17.60
2022-12-18T14:10:48.568Z,19.98
2022-12-18T14:13:22.301Z,19.85
2022-12-18T14:15:51.244Z,21.02
2022-12-18T14:18:39.333Z,26.52
2022-12-18T14:21:07.875Z,17.63
2022-12-18T14:23:39.892Z,20.27
2022-12-18T14:26:30.185Z,22.25
2022-12-18T14:29:19.484Z,17.15
2022-12-18T14:32:04.661Z,16.55
2022-12-18T14:34:33.190Z,19.77
2022-12-18T14:37:00.710Z,18.40
2022-12-18T14:39:30.398Z,17.42
2022-12-18T14:41:57.892Z,19.13
2022-12-18T14:44:25.447Z,18.02
2022-12-18T14:46:53.182Z,19.58
2022-12-18T14:49:35.129Z,17.25
2022-12-18T14:52:07.845Z,19.98
2022-12-18T14:54:38.258Z,16.88
2022-12-18T14:57:17.472Z,16.27
2022-12-18T14:59:44.985Z,14.38
2022-12-18T15:02:27.740Z,16.40
2022-12-18T15:05:17.209Z,16.33
2022-12-18T15:07:46.997Z,17.92
2022-12-18T15:10:27.222Z,15.95
2022-12-18T15:12:57.458Z,17.15
2022-12-18T15:15:37.131Z,17.02
2022-12-18T15:18:13.483Z,15.93
2022-12-18T15:21:00.228Z,24.10
2022-12-18T15:23:50.003Z,16.60
2022-12-18T15:26:19.863Z,17.55
2022-12-18T15:28:59.495Z,21.88
2022-12-18T15:31:32.556Z,15.20
2022-12-18T15:34:13.421Z,16.55
2022-12-18T15:36:41.633Z,16.75
2022-12-18T15:39:13.043Z,20.42
2022-12-18T15:41:40.859Z,18.20
2022-12-18T15:44:37.902Z,16.15
2022-12-18T15:47:12.436Z,15.63
2022-12-18T15:49:40.295Z,15.15
2022-12-18T15:52:13.296Z,24.38
2022-12-18T15:54:59.535Z,20.27
2022-12-18T15:57:27.588Z,18.55
2022-12-18T15:59:59.274Z,22.58
2022-12-18T16:02:28.955Z,18.17
2022-12-18T16:04:57.099Z,25.30
2022-12-18T16:07:28.174Z,24.15
2022-12-18T16:09:59.010Z,21.83
2022-12-18T16:12:29.946Z,14.88
2022-12-18T16:14:57.506Z,19.33
2022-12-18T16:17:25.086Z,18.45
2022-12-18T16:19:52.572Z,24.70
2022-12-18T16:22:22.880Z,24.15
2022-12-18T16:24:51.731Z,16.25
2022-12-18T16:27:20.048Z,18.38
2022-12-18T16:29:47.712Z,22.75
2022-12-18T16:32:20.490Z,30.23
2022-12-18T16:34:48.416Z,18.13
2022-12-18T16:37:17.451Z,22.33
2022-12-18T16:39:45.306Z,15.43
2022-12-18T16:42:17.549Z,23.50
2022-12-18T16:44:46.128Z,18.30
2022-12-18T16:47:14.912Z,21.38
2022-12-18T16:49:45.958Z,22.27
2022-12-18T16:52:14.432Z,22.38
2022-12-18T16:54:42.056Z,22.73
2022-12-18T16:57:13.125Z,19.83
2022-12-18T16:59:40.637Z,21.23
2022-12-18T17:02:15.719Z,24.00
2022-12-18T17:04:45.297Z,27.10
2022-12-18T17:07:13.730Z,26.58
2022-12-18T17:09:42.224Z,21.58
2022-12-18T17:12:09.964Z,23.42
2022-12-18T17:14:37.913Z,28.50
2022-12-18T17:17:22.727Z,20.85
2022-12-18T17:19:51.959Z,23.85
2022-12-18T17:22:20.123Z,21.98
2022-12-18T17:24:48.145Z,24.77
2022-12-18T17:27:16.102Z,18.45
2022-12-18T17:29:47.796Z,22.30
2022-12-18T17:32:17.203Z,28.55
2022-12-18T17:34:45.029Z,24.10
2022-12-18T17:37:13.138Z,22.33
2022-12-18T17:39:40.709Z,19.80
2022-12-18T17:42:11.498Z,31.23
2022-12-18T17:44:43.759Z,37.03
2022-12-18T17:47:13.167Z,34.47
2022-12-18T17:49:40.900Z,23.00
2022-12-18T17:52:08.463Z,27.55
2022-12-18T17:54:39.594Z,25.33
2022-12-18T17:57:07.685Z,25.65
2022-12-18T17:59:35.239Z,29.33
2022-12-18T18:02:03.010Z,22.95
2022-12-18T18:04:30.814Z,20.40
2022-12-18T18:06:58.385Z,29.20
2022-12-18T18:09:26.083Z,25.80
2022-12-18T18:12:11.963Z,22.77
2022-12-18T18:14:39.632Z,24.67
2022-12-18T18:17:07.452Z,25.48
2022-12-18T18:19:34.997Z,21.48
2022-12-18T18:22:03.139Z,32.63
2022-12-18T18:24:33.134Z,20.15
2022-12-18T18:27:00.837Z,18.65
2022-12-18T18:29:32.430Z,29.70
2022-12-18T18:32:00.279Z,23.42
2022-12-18T18:34:30.425Z,25.90
2022-12-18T18:37:00.748Z,31.33
2022-12-18T18:39:28.568Z,33.22
2022-12-18T18:41:56.389Z,24.30
2022-12-18T18:44:25.982Z,35.42
2022-12-18T18:46:58.377Z,31.90
2022-12-18T18:49:27.956Z,28.30
2022-12-18T18:51:57.218Z,27.88
2022-12-18T18:54:25.625Z,33.35
2022-12-18T18:59:41.192Z,27.58
2022-12-18T19:02:14.572Z,30.52
2022-12-18T19:04:45.545Z,29.35
2022-12-18T19:07:25.434Z,29.77
2022-12-18T19:09:58.159Z,30.60
2022-12-18T19:12:52.250Z,30.10
2022-12-18T19:15:19.951Z,27.52
2022-12-18T19:17:47.889Z,35.67
2022-12-18T19:20:16.017Z,67.97
2022-12-18T19:22:43.508Z,26.77
2022-12-18T19:25:13.592Z,29.17
2022-12-18T19:27:41.444Z,33.67
2022-12-18T19:30:09.698Z,26.95
2022-12-18T19:32:37.220Z,26.77
2022-12-18T19:35:05.141Z,33.33
2022-12-18T19:37:34.660Z,30.98
2022-12-18T19:40:07.963Z,34.00
2022-12-18T19:42:39.991Z,26.00
2022-12-18T19:45:07.710Z,37.83
2022-12-18T19:47:35.199Z,25.98
2022-12-18T19:50:02.708Z,31.02
2022-12-18T19:52:30.601Z,31.60
2022-12-18T19:54:58.325Z,32.70
2022-12-18T19:57:25.868Z,35.25
2022-12-18T19:59:53.341Z,27.63
2022-12-18T20:02:21.396Z,36.00
2022-12-18T20:04:49.774Z,32.63
2022-12-18T20:07:17.280Z,34.70
2022-12-18T20:09:44.884Z,33.28
2022-12-18T20:12:13.175Z,28.45
2022-12-18T20:14:40.784Z,27.42
2022-12-18T20:17:08.325Z,32.70
2022-12-18T20:19:36.887Z,36.83
2022-12-18T20:22:04.434Z,33.13
2022-12-18T20:24:32.294Z,32.30
2022-12-18T20:26:59.859Z,30.30
2022-12-18T20:29:27.413Z,27.17
2022-12-18T20:31:54.921Z,33.25
2022-12-18T20:34:22.455Z,32.08
2022-12-18T20:36:50.280Z,30.88
2022-12-18T20:39:19.204Z,29.92
2022-12-18T20:41:47.702Z,40.72
2022-12-18T20:44:23.193Z,27.73
2022-12-18T20:46:56.729Z,26.02
2022-12-18T20:49:26.252Z,31.20
2022-12-18T20:51:56.409Z,36.40
2022-12-18T20:54:26.181Z,32.80
2022-12-18T20:56:54.471Z,35.88
2022-12-18T20:59:23.223Z,30.35
2022-12-18T21:01:52.254Z,25.13
2022-12-18T21:04:20.474Z,27.63
2022-12-18T21:06:56.758Z,31.30
2022-12-18T21:09:28.190Z,23.70
2022-12-18T21:12:23.196Z,25.52
2022-12-18T21:14:50.780Z,31.83
2022-12-18T21:17:18.218Z,26.73
2022-12-18T21:19:45.664Z,30.77
2022-12-18T21:22:14.087Z,32.05
2022-12-18T21:24:41.541Z,34.58
2022-12-18T21:27:08.997Z,31.65
2022-12-18T21:29:38.252Z,32.33
2022-12-18T21:32:06.025Z,25.77
2022-12-18T21:34:34.224Z,28.17
2022-12-18T21:37:02.408Z,28.15
2022-12-18T21:39:30.633Z,29.90
2022-12-18T21:42:17.358Z,21.90
2022-12-18T21:44:47.836Z,26.02
2022-12-18T21:47:21.805Z,26.40
2022-12-18T21:49:51.820Z,30.48
2022-12-18T21:52:23.764Z,31.52
2022-12-18T21:55:09.141Z,25.65
2022-12-18T21:57:40.737Z,25.90
2022-12-18T22:00:18.281Z,26.95
2022-12-18T22:02:49.572Z,29.65
2022-12-18T22:05:36.192Z,32.58
2022-12-18T22:08:03.860Z,28.65
2022-12-18T22:10:31.572Z,31.02
2022-12-18T22:12:59.381Z,23.30
2022-12-18T22:15:27.019Z,29.25
2022-12-18T22:17:59.709Z,30.85
2022-12-18T22:20:29.694Z,29.33
2022-12-18T22:22:58.238Z,22.80
2022-12-18T22:25:25.852Z,27.70
2022-12-18T22:28:12.116Z,22.40
2022-12-18T22:30:39.594Z,30.95
2022-12-18T22:33:07.036Z,31.17
2022-12-18T22:35:34.535Z,21.13
2022-12-18T22:38:02.155Z,21.48
2022-12-18T22:40:29.741Z,24.55
2022-12-18T22:42:57.774Z,28.75
2022-12-18T22:45:26.637Z,23.05
2022-12-18T22:47:54.348Z,19.38
2022-12-18T22:50:21.925Z,16.73
2022-12-18T22:52:49.404Z,21.55
2022-12-18T22:55:17.066Z,24.67
2022-12-18T22:57:48.740Z,16.50
2022-12-18T23:00:24.281Z,26.33
2022-12-18T23:02:59.706Z,26.50
2022-12-18T23:05:28.738Z,22.38
2022-12-18T23:07:56.288Z,21.35
2022-12-18T23:10:24.104Z,24.05
2022-12-18T23:12:51.557Z,20.35
2022-12-18T23:15:19.515Z,24.70
2022-12-18T23:17:53.572Z,22.40
2022-12-18T23:20:21.150Z,23.95
2022-12-18T23:22:48.610Z,26.90
2022-12-18T23:25:16.113Z,21.50
2022-12-18T23:27:43.655Z,23.90
2022-12-18T23:30:11.661Z,22.27
2022-12-18T23:32:39.221Z,18.90
2022-12-18T23:35:07.293Z,22.77
2022-12-18T23:37:58.493Z,28.80
2022-12-18T23:40:24.068Z,23.23
2022-12-18T23:42:51.549Z,27.70
2022-12-18T23:45:19.014Z,26.77
2022-12-18T23:47:47.945Z,16.20
2022-12-18T23:50:19.012Z,17.20
2022-12-18T23:52:49.784Z,23.77
2022-12-18T23:55:17.246Z,17.63
2022-12-18T23:57:44.778Z,19.58
